Terminal Aerodrome Forecast
Issued by NWS Lake Charles, LA

Home | Current Version | Previous Version | Text Only | Print | Product List | Glossary On
Versions: 1 2 3 4 5 6 7 8 9 10 11 12 13 14 15
000
FTUS44 KLCH 212300
TAFLFT
TAF
KLFT 212320Z 2200/2224 11005KT P6SM BKN200
     FM221500 11007KT P6SM VCSH FEW035 BKN100
     FM221900 12008G15KT P6SM VCTS SCT025CB OVC050=

USA.gov is the U.S. government's official web portal to all federal, state and local government web resources and services.